sensor_id;sensor_type;location;lat;lon;timestamp;P1;durP1;ratioP1;P2;durP2;ratioP2
17504;SDS011;8870;50.950;11.762;2022-12-05T00:00:19;977.03;;;95.40;;
17504;SDS011;8870;50.950;11.762;2022-12-05T00:05:51;603.08;;;80.57;;
17504;SDS011;8870;50.950;11.762;2022-12-05T00:27:09;1054.20;;;81.43;;
17504;SDS011;8870;50.950;11.762;2022-12-05T00:32:40;1279.93;;;94.57;;
17504;SDS011;8870;50.950;11.762;2022-12-05T00:37:59;627.53;;;73.40;;
17504;SDS011;8870;50.950;11.762;2022-12-05T00:43:36;1086.80;;;81.05;;
17504;SDS011;8870;50.950;11.762;2022-12-05T00:48:55;1144.60;;;81.30;;
17504;SDS011;8870;50.950;11.762;2022-12-05T00:54:27;686.00;;;70.47;;
17504;SDS011;8870;50.950;11.762;2022-12-05T00:59:48;1113.13;;;78.28;;
17504;SDS011;8870;50.950;11.762;2022-12-05T01:05:19;744.78;;;69.10;;
17504;SDS011;8870;50.950;11.762;2022-12-05T01:10:37;1113.57;;;75.93;;
17504;SDS011;8870;50.950;11.762;2022-12-05T01:16:15;565.92;;;61.05;;
17504;SDS011;8870;50.950;11.762;2022-12-05T01:21:34;847.65;;;64.00;;
17504;SDS011;8870;50.950;11.762;2022-12-05T01:27:05;657.88;;;61.13;;
17504;SDS011;8870;50.950;11.762;2022-12-05T01:32:39;397.05;;;56.50;;
17504;SDS011;8870;50.950;11.762;2022-12-05T01:37:57;717.80;;;60.63;;
17504;SDS011;8870;50.950;11.762;2022-12-05T01:43:29;376.88;;;49.80;;
17504;SDS011;8870;50.950;11.762;2022-12-05T01:48:50;521.03;;;52.20;;
17504;SDS011;8870;50.950;11.762;2022-12-05T01:54:24;765.80;;;64.13;;
17504;SDS011;8870;50.950;11.762;2022-12-05T01:59:44;255.27;;;47.78;;
17504;SDS011;8870;50.950;11.762;2022-12-05T02:05:25;373.63;;;52.37;;
17504;SDS011;8870;50.950;11.762;2022-12-05T02:10:46;697.30;;;57.08;;
17504;SDS011;8870;50.950;11.762;2022-12-05T02:16:21;542.20;;;51.78;;
17504;SDS011;8870;50.950;11.762;2022-12-05T02:21:54;749.10;;;57.08;;
17504;SDS011;8870;50.950;11.762;2022-12-05T02:33:42;758.47;;;60.40;;
17504;SDS011;8870;50.950;11.762;2022-12-05T02:39:17;313.40;;;46.03;;
17504;SDS011;8870;50.950;11.762;2022-12-05T02:44:44;824.30;;;62.30;;
17504;SDS011;8870;50.950;11.762;2022-12-05T02:50:22;704.53;;;51.42;;
17504;SDS011;8870;50.950;11.762;2022-12-05T02:55:44;901.55;;;55.15;;
17504;SDS011;8870;50.950;11.762;2022-12-05T03:01:17;753.30;;;48.67;;
17504;SDS011;8870;50.950;11.762;2022-12-05T03:06:39;764.65;;;45.70;;
17504;SDS011;8870;50.950;11.762;2022-12-05T03:12:15;704.03;;;43.95;;
17504;SDS011;8870;50.950;11.762;2022-12-05T03:17:38;775.35;;;46.10;;
17504;SDS011;8870;50.950;11.762;2022-12-05T03:23:19;774.50;;;47.70;;
17504;SDS011;8870;50.950;11.762;2022-12-05T03:28:54;897.97;;;51.80;;
17504;SDS011;8870;50.950;11.762;2022-12-05T03:34:28;904.38;;;50.28;;
17504;SDS011;8870;50.950;11.762;2022-12-05T03:40:11;802.95;;;46.63;;
17504;SDS011;8870;50.950;11.762;2022-12-05T03:45:43;900.60;;;48.15;;
17504;SDS011;8870;50.950;11.762;2022-12-05T03:51:18;846.15;;;44.92;;
17504;SDS011;8870;50.950;11.762;2022-12-05T03:56:43;898.40;;;48.85;;
17504;SDS011;8870;50.950;11.762;2022-12-05T04:02:20;810.28;;;45.60;;
17504;SDS011;8870;50.950;11.762;2022-12-05T04:07:42;837.78;;;49.80;;
17504;SDS011;8870;50.950;11.762;2022-12-05T04:13:20;788.08;;;45.40;;
17504;SDS011;8870;50.950;11.762;2022-12-05T04:18:50;615.13;;;42.63;;
17504;SDS011;8870;50.950;11.762;2022-12-05T04:24:29;760.05;;;46.70;;
17504;SDS011;8870;50.950;11.762;2022-12-05T04:30:05;291.88;;;37.00;;
17504;SDS011;8870;50.950;11.762;2022-12-05T04:35:40;439.17;;;37.75;;
17504;SDS011;8870;50.950;11.762;2022-12-05T04:41:03;349.95;;;36.22;;
17504;SDS011;8870;50.950;11.762;2022-12-05T04:46:40;317.20;;;35.25;;
17504;SDS011;8870;50.950;11.762;2022-12-05T04:52:03;519.45;;;41.03;;
17504;SDS011;8870;50.950;11.762;2022-12-05T04:57:39;380.63;;;35.75;;
17504;SDS011;8870;50.950;11.762;2022-12-05T05:03:05;246.73;;;34.20;;
17504;SDS011;8870;50.950;11.762;2022-12-05T05:08:51;208.73;;;32.85;;
17504;SDS011;8870;50.950;11.762;2022-12-05T05:14:11;209.85;;;34.63;;
17504;SDS011;8870;50.950;11.762;2022-12-05T05:19:45;598.88;;;41.85;;
17504;SDS011;8870;50.950;11.762;2022-12-05T05:25:10;282.63;;;33.28;;
17504;SDS011;8870;50.950;11.762;2022-12-05T05:30:42;223.40;;;33.20;;
17504;SDS011;8870;50.950;11.762;2022-12-05T05:36:04;230.07;;;33.55;;
17504;SDS011;8870;50.950;11.762;2022-12-05T05:41:37;227.10;;;34.40;;
17504;SDS011;8870;50.950;11.762;2022-12-05T05:46:56;153.07;;;32.40;;
17504;SDS011;8870;50.950;11.762;2022-12-05T05:52:29;84.00;;;32.47;;
17504;SDS011;8870;50.950;11.762;2022-12-05T05:57:49;385.45;;;39.42;;
17504;SDS011;8870;50.950;11.762;2022-12-05T06:03:20;302.45;;;35.35;;
17504;SDS011;8870;50.950;11.762;2022-12-05T06:08:42;344.20;;;36.58;;
17504;SDS011;8870;50.950;11.762;2022-12-05T06:14:15;95.18;;;32.53;;
17504;SDS011;8870;50.950;11.762;2022-12-05T06:19:33;106.75;;;32.78;;
17504;SDS011;8870;50.950;11.762;2022-12-05T06:25:07;249.00;;;36.13;;
17504;SDS011;8870;50.950;11.762;2022-12-05T06:30:27;161.90;;;35.38;;
17504;SDS011;8870;50.950;11.762;2022-12-05T06:36:01;180.25;;;35.92;;
17504;SDS011;8870;50.950;11.762;2022-12-05T06:41:23;202.52;;;36.00;;
17504;SDS011;8870;50.950;11.762;2022-12-05T06:46:55;137.13;;;34.17;;
17504;SDS011;8870;50.950;11.762;2022-12-05T06:52:13;181.38;;;35.70;;
17504;SDS011;8870;50.950;11.762;2022-12-05T06:57:47;184.50;;;34.45;;
17504;SDS011;8870;50.950;11.762;2022-12-05T07:03:05;129.95;;;35.47;;
17504;SDS011;8870;50.950;11.762;2022-12-05T07:08:36;138.38;;;35.13;;
17504;SDS011;8870;50.950;11.762;2022-12-05T07:13:57;94.20;;;31.73;;
17504;SDS011;8870;50.950;11.762;2022-12-05T07:19:51;131.23;;;32.53;;
17504;SDS011;8870;50.950;11.762;2022-12-05T07:25:10;86.10;;;32.38;;
17504;SDS011;8870;50.950;11.762;2022-12-05T07:30:46;183.88;;;36.20;;
17504;SDS011;8870;50.950;11.762;2022-12-05T07:36:06;70.72;;;31.60;;
17504;SDS011;8870;50.950;11.762;2022-12-05T07:41:39;58.05;;;29.15;;
17504;SDS011;8870;50.950;11.762;2022-12-05T07:47:01;55.85;;;28.15;;
17504;SDS011;8870;50.950;11.762;2022-12-05T07:52:33;47.75;;;26.10;;
17504;SDS011;8870;50.950;11.762;2022-12-05T07:57:50;41.88;;;23.27;;
17504;SDS011;8870;50.950;11.762;2022-12-05T08:03:24;45.58;;;24.60;;
17504;SDS011;8870;50.950;11.762;2022-12-05T08:08:43;42.63;;;21.85;;
17504;SDS011;8870;50.950;11.762;2022-12-05T08:14:14;39.10;;;21.83;;
17504;SDS011;8870;50.950;11.762;2022-12-05T08:19:35;38.35;;;21.77;;
17504;SDS011;8870;50.950;11.762;2022-12-05T08:25:07;34.08;;;20.10;;
17504;SDS011;8870;50.950;11.762;2022-12-05T08:30:25;32.45;;;19.40;;
17504;SDS011;8870;50.950;11.762;2022-12-05T08:36:01;31.77;;;19.45;;
17504;SDS011;8870;50.950;11.762;2022-12-05T08:41:20;31.33;;;18.92;;
17504;SDS011;8870;50.950;11.762;2022-12-05T08:46:51;28.27;;;18.40;;
17504;SDS011;8870;50.950;11.762;2022-12-05T08:52:12;28.67;;;17.67;;
17504;SDS011;8870;50.950;11.762;2022-12-05T08:57:44;27.00;;;17.65;;
17504;SDS011;8870;50.950;11.762;2022-12-05T09:03:03;25.65;;;17.92;;
17504;SDS011;8870;50.950;11.762;2022-12-05T09:08:36;27.90;;;17.70;;
17504;SDS011;8870;50.950;11.762;2022-12-05T09:13:56;25.00;;;16.50;;
17504;SDS011;8870;50.950;11.762;2022-12-05T09:19:28;24.48;;;16.65;;
17504;SDS011;8870;50.950;11.762;2022-12-05T09:24:49;27.25;;;16.40;;
17504;SDS011;8870;50.950;11.762;2022-12-05T09:30:20;25.27;;;17.42;;
17504;SDS011;8870;50.950;11.762;2022-12-05T09:35:38;27.10;;;16.63;;
17504;SDS011;8870;50.950;11.762;2022-12-05T09:41:14;46.65;;;17.40;;
17504;SDS011;8870;50.950;11.762;2022-12-05T09:46:56;190.02;;;23.25;;
17504;SDS011;8870;50.950;11.762;2022-12-05T09:52:32;449.17;;;25.55;;
17504;SDS011;8870;50.950;11.762;2022-12-05T09:57:55;188.80;;;21.48;;
17504;SDS011;8870;50.950;11.762;2022-12-05T10:03:33;344.63;;;22.92;;
17504;SDS011;8870;50.950;11.762;2022-12-05T10:09:02;38.58;;;20.23;;
17504;SDS011;8870;50.950;11.762;2022-12-05T10:14:47;27.83;;;19.58;;
17504;SDS011;8870;50.950;11.762;2022-12-05T10:20:16;26.65;;;19.60;;
17504;SDS011;8870;50.950;11.762;2022-12-05T10:25:53;22.77;;;16.80;;
17504;SDS011;8870;50.950;11.762;2022-12-05T10:31:17;19.55;;;14.93;;
17504;SDS011;8870;50.950;11.762;2022-12-05T10:36:53;18.95;;;13.35;;
17504;SDS011;8870;50.950;11.762;2022-12-05T10:42:15;16.88;;;13.00;;
17504;SDS011;8870;50.950;11.762;2022-12-05T10:47:58;16.88;;;13.13;;
17504;SDS011;8870;50.950;11.762;2022-12-05T10:53:17;17.85;;;13.35;;
17504;SDS011;8870;50.950;11.762;2022-12-05T10:58:53;17.42;;;13.90;;
17504;SDS011;8870;50.950;11.762;2022-12-05T11:04:24;16.65;;;12.95;;
17504;SDS011;8870;50.950;11.762;2022-12-05T11:09:59;17.33;;;13.23;;
17504;SDS011;8870;50.950;11.762;2022-12-05T11:15:43;14.93;;;11.40;;
17504;SDS011;8870;50.950;11.762;2022-12-05T11:21:10;14.50;;;12.38;;
17504;SDS011;8870;50.950;11.762;2022-12-05T11:26:44;13.35;;;11.38;;
17504;SDS011;8870;50.950;11.762;2022-12-05T11:32:17;75.70;;;15.23;;
17504;SDS011;8870;50.950;11.762;2022-12-05T11:37:42;15.40;;;12.75;;
17504;SDS011;8870;50.950;11.762;2022-12-05T11:43:23;15.00;;;12.15;;
17504;SDS011;8870;50.950;11.762;2022-12-05T11:49:03;14.35;;;11.70;;
17504;SDS011;8870;50.950;11.762;2022-12-05T11:54:52;12.77;;;11.18;;
17504;SDS011;8870;50.950;11.762;2022-12-05T12:00:16;13.18;;;11.23;;
17504;SDS011;8870;50.950;11.762;2022-12-05T12:05:53;13.95;;;11.05;;
17504;SDS011;8870;50.950;11.762;2022-12-05T12:11:26;12.25;;;10.43;;
17504;SDS011;8870;50.950;11.762;2022-12-05T12:17:04;11.18;;;9.73;;
17504;SDS011;8870;50.950;11.762;2022-12-05T12:22:36;10.40;;;9.23;;
17504;SDS011;8870;50.950;11.762;2022-12-05T12:28:28;11.50;;;9.77;;
17504;SDS011;8870;50.950;11.762;2022-12-05T12:34:13;11.95;;;9.95;;
17504;SDS011;8870;50.950;11.762;2022-12-05T12:39:47;12.52;;;9.48;;
17504;SDS011;8870;50.950;11.762;2022-12-05T12:45:37;10.55;;;9.40;;
17504;SDS011;8870;50.950;11.762;2022-12-05T12:51:04;12.45;;;10.20;;
17504;SDS011;8870;50.950;11.762;2022-12-05T12:56:41;11.10;;;9.88;;
17504;SDS011;8870;50.950;11.762;2022-12-05T13:02:23;10.75;;;8.82;;
17504;SDS011;8870;50.950;11.762;2022-12-05T13:07:57;9.90;;;8.38;;
17504;SDS011;8870;50.950;11.762;2022-12-05T13:13:21;10.43;;;8.98;;
17504;SDS011;8870;50.950;11.762;2022-12-05T13:18:59;10.68;;;9.52;;
17504;SDS011;8870;50.950;11.762;2022-12-05T13:24:19;10.43;;;8.95;;
17504;SDS011;8870;50.950;11.762;2022-12-05T13:29:55;9.95;;;8.57;;
17504;SDS011;8870;50.950;11.762;2022-12-05T13:35:26;10.60;;;9.10;;
17504;SDS011;8870;50.950;11.762;2022-12-05T13:41:13;11.38;;;10.15;;
17504;SDS011;8870;50.950;11.762;2022-12-05T13:46:45;11.75;;;9.57;;
17504;SDS011;8870;50.950;11.762;2022-12-05T13:52:22;11.90;;;9.93;;
17504;SDS011;8870;50.950;11.762;2022-12-05T13:57:45;14.57;;;11.60;;
17504;SDS011;8870;50.950;11.762;2022-12-05T14:03:52;12.60;;;10.68;;
17504;SDS011;8870;50.950;11.762;2022-12-05T14:15:23;11.93;;;10.18;;
17504;SDS011;8870;50.950;11.762;2022-12-05T14:20:55;13.35;;;10.80;;
17504;SDS011;8870;50.950;11.762;2022-12-05T14:26:51;13.35;;;11.60;;
17504;SDS011;8870;50.950;11.762;2022-12-05T14:32:22;12.68;;;10.52;;
17504;SDS011;8870;50.950;11.762;2022-12-05T14:37:58;12.95;;;10.63;;
17504;SDS011;8870;50.950;11.762;2022-12-05T14:43:25;11.95;;;10.18;;
17504;SDS011;8870;50.950;11.762;2022-12-05T14:54:57;11.70;;;10.20;;
17504;SDS011;8870;50.950;11.762;2022-12-05T15:00:43;13.05;;;10.60;;
17504;SDS011;8870;50.950;11.762;2022-12-05T15:06:03;12.93;;;10.57;;
17504;SDS011;8870;50.950;11.762;2022-12-05T15:11:41;11.77;;;10.40;;
17504;SDS011;8870;50.950;11.762;2022-12-05T15:17:02;12.52;;;10.55;;
17504;SDS011;8870;50.950;11.762;2022-12-05T15:22:34;14.45;;;11.15;;
17504;SDS011;8870;50.950;11.762;2022-12-05T15:28:02;11.75;;;10.10;;
17504;SDS011;8870;50.950;11.762;2022-12-05T15:33:38;14.68;;;11.38;;
17504;SDS011;8870;50.950;11.762;2022-12-05T15:39:15;13.27;;;10.95;;
17504;SDS011;8870;50.950;11.762;2022-12-05T15:44:49;16.83;;;12.60;;
17504;SDS011;8870;50.950;11.762;2022-12-05T15:50:13;26.33;;;21.92;;
17504;SDS011;8870;50.950;11.762;2022-12-05T15:55:46;22.58;;;18.25;;
17504;SDS011;8870;50.950;11.762;2022-12-05T16:01:08;20.23;;;15.20;;
17504;SDS011;8870;50.950;11.762;2022-12-05T16:06:46;20.10;;;14.32;;
17504;SDS011;8870;50.950;11.762;2022-12-05T16:12:14;18.83;;;14.75;;
17504;SDS011;8870;50.950;11.762;2022-12-05T16:17:52;19.42;;;14.80;;
17504;SDS011;8870;50.950;11.762;2022-12-05T16:23:23;20.13;;;15.35;;
17504;SDS011;8870;50.950;11.762;2022-12-05T16:28:58;107.70;;;19.55;;
17504;SDS011;8870;50.950;11.762;2022-12-05T16:34:31;456.95;;;26.30;;
17504;SDS011;8870;50.950;11.762;2022-12-05T16:39:54;720.97;;;33.15;;
17504;SDS011;8870;50.950;11.762;2022-12-05T16:45:36;785.85;;;33.60;;
17504;SDS011;8870;50.950;11.762;2022-12-05T16:51:14;872.28;;;32.55;;
17504;SDS011;8870;50.950;11.762;2022-12-05T16:56:51;600.67;;;29.23;;
17504;SDS011;8870;50.950;11.762;2022-12-05T17:02:10;734.10;;;34.47;;
17504;SDS011;8870;50.950;11.762;2022-12-05T17:07:45;95.63;;;21.92;;
17504;SDS011;8870;50.950;11.762;2022-12-05T17:13:06;796.72;;;33.15;;
17504;SDS011;8870;50.950;11.762;2022-12-05T17:18:37;1460.70;;;43.22;;
17504;SDS011;8870;50.950;11.762;2022-12-05T17:23:55;867.53;;;33.33;;
17504;SDS011;8870;50.950;11.762;2022-12-05T17:29:29;479.73;;;27.17;;
17504;SDS011;8870;50.950;11.762;2022-12-05T17:34:48;348.08;;;26.42;;
17504;SDS011;8870;50.950;11.762;2022-12-05T17:40:21;723.08;;;30.20;;
17504;SDS011;8870;50.950;11.762;2022-12-05T17:45:42;344.25;;;23.08;;
17504;SDS011;8870;50.950;11.762;2022-12-05T17:51:15;55.58;;;19.27;;
17504;SDS011;8870;50.950;11.762;2022-12-05T17:56:34;34.67;;;20.25;;
17504;SDS011;8870;50.950;11.762;2022-12-05T18:02:09;29.10;;;20.08;;
17504;SDS011;8870;50.950;11.762;2022-12-05T18:07:29;22.48;;;18.05;;
17504;SDS011;8870;50.950;11.762;2022-12-05T18:13:00;24.20;;;18.13;;
17504;SDS011;8870;50.950;11.762;2022-12-05T18:18:20;23.38;;;18.52;;
17504;SDS011;8870;50.950;11.762;2022-12-05T18:23:53;20.90;;;16.33;;
17504;SDS011;8870;50.950;11.762;2022-12-05T18:29:18;22.30;;;17.67;;
17504;SDS011;8870;50.950;11.762;2022-12-05T18:34:51;22.23;;;17.20;;
17504;SDS011;8870;50.950;11.762;2022-12-05T18:40:19;18.77;;;15.75;;
17504;SDS011;8870;50.950;11.762;2022-12-05T18:45:53;20.35;;;15.95;;
17504;SDS011;8870;50.950;11.762;2022-12-05T18:51:16;18.88;;;14.73;;
17504;SDS011;8870;50.950;11.762;2022-12-05T18:56:49;19.70;;;15.20;;
17504;SDS011;8870;50.950;11.762;2022-12-05T19:02:07;19.20;;;14.82;;
17504;SDS011;8870;50.950;11.762;2022-12-05T19:07:41;17.85;;;14.55;;
17504;SDS011;8870;50.950;11.762;2022-12-05T19:13:00;17.63;;;13.95;;
17504;SDS011;8870;50.950;11.762;2022-12-05T19:18:32;16.40;;;13.85;;
17504;SDS011;8870;50.950;11.762;2022-12-05T19:23:54;20.80;;;17.25;;
17504;SDS011;8870;50.950;11.762;2022-12-05T19:29:26;17.15;;;13.60;;
17504;SDS011;8870;50.950;11.762;2022-12-05T19:34:57;16.70;;;13.63;;
17504;SDS011;8870;50.950;11.762;2022-12-05T19:40:17;15.88;;;12.82;;
17504;SDS011;8870;50.950;11.762;2022-12-05T19:45:49;13.07;;;10.55;;
17504;SDS011;8870;50.950;11.762;2022-12-05T19:51:07;13.23;;;10.70;;
17504;SDS011;8870;50.950;11.762;2022-12-05T19:56:41;13.50;;;11.10;;
17504;SDS011;8870;50.950;11.762;2022-12-05T20:02:00;14.10;;;11.88;;
17504;SDS011;8870;50.950;11.762;2022-12-05T20:07:31;17.95;;;13.95;;
17504;SDS011;8870;50.950;11.762;2022-12-05T20:12:51;16.73;;;13.55;;
17504;SDS011;8870;50.950;11.762;2022-12-05T20:18:43;14.85;;;12.60;;
17504;SDS011;8870;50.950;11.762;2022-12-05T20:24:02;11.68;;;10.48;;
17504;SDS011;8870;50.950;11.762;2022-12-05T20:29:37;12.30;;;10.40;;
17504;SDS011;8870;50.950;11.762;2022-12-05T20:35:09;12.13;;;9.93;;
17504;SDS011;8870;50.950;11.762;2022-12-05T20:40:31;10.60;;;9.50;;
17504;SDS011;8870;50.950;11.762;2022-12-05T20:46:06;19.10;;;15.85;;
17504;SDS011;8870;50.950;11.762;2022-12-05T20:51:28;13.57;;;11.57;;
17504;SDS011;8870;50.950;11.762;2022-12-05T20:57:00;10.45;;;9.35;;
17504;SDS011;8870;50.950;11.762;2022-12-05T21:02:20;10.85;;;9.52;;
17504;SDS011;8870;50.950;11.762;2022-12-05T21:07:52;11.43;;;10.23;;
17504;SDS011;8870;50.950;11.762;2022-12-05T21:13:23;13.67;;;10.40;;
17504;SDS011;8870;50.950;11.762;2022-12-05T21:18:57;12.63;;;9.48;;
17504;SDS011;8870;50.950;11.762;2022-12-05T21:24:16;9.57;;;8.57;;
17504;SDS011;8870;50.950;11.762;2022-12-05T21:29:49;9.93;;;8.63;;
17504;SDS011;8870;50.950;11.762;2022-12-05T21:35:22;9.50;;;8.50;;
17504;SDS011;8870;50.950;11.762;2022-12-05T21:40:41;9.98;;;8.88;;
17504;SDS011;8870;50.950;11.762;2022-12-05T21:46:12;9.52;;;8.35;;
17504;SDS011;8870;50.950;11.762;2022-12-05T21:51:32;9.25;;;8.15;;
17504;SDS011;8870;50.950;11.762;2022-12-05T21:57:04;9.07;;;8.15;;
17504;SDS011;8870;50.950;11.762;2022-12-05T22:02:22;10.85;;;8.85;;
17504;SDS011;8870;50.950;11.762;2022-12-05T22:07:56;10.80;;;9.10;;
17504;SDS011;8870;50.950;11.762;2022-12-05T22:13:15;11.50;;;9.02;;
17504;SDS011;8870;50.950;11.762;2022-12-05T22:18:46;11.98;;;10.35;;
17504;SDS011;8870;50.950;11.762;2022-12-05T22:24:07;11.10;;;9.35;;
17504;SDS011;8870;50.950;11.762;2022-12-05T22:29:38;10.52;;;8.82;;
17504;SDS011;8870;50.950;11.762;2022-12-05T22:35:09;12.10;;;9.87;;
17504;SDS011;8870;50.950;11.762;2022-12-05T22:40:29;12.57;;;9.80;;
17504;SDS011;8870;50.950;11.762;2022-12-05T22:46:04;11.68;;;9.20;;
17504;SDS011;8870;50.950;11.762;2022-12-05T22:51:23;10.70;;;8.70;;
17504;SDS011;8870;50.950;11.762;2022-12-05T22:56:56;10.18;;;9.05;;
17504;SDS011;8870;50.950;11.762;2022-12-05T23:02:15;11.05;;;9.02;;
17504;SDS011;8870;50.950;11.762;2022-12-05T23:07:46;54.60;;;10.88;;
17504;SDS011;8870;50.950;11.762;2022-12-05T23:13:07;114.45;;;10.57;;
17504;SDS011;8870;50.950;11.762;2022-12-05T23:18:40;777.10;;;24.02;;
17504;SDS011;8870;50.950;11.762;2022-12-05T23:24:06;710.05;;;24.00;;
17504;SDS011;8870;50.950;11.762;2022-12-05T23:29:40;286.30;;;17.42;;
17504;SDS011;8870;50.950;11.762;2022-12-05T23:35:13;541.13;;;23.40;;
17504;SDS011;8870;50.950;11.762;2022-12-05T23:40:31;593.03;;;22.92;;
17504;SDS011;8870;50.950;11.762;2022-12-05T23:46:05;221.70;;;16.65;;
17504;SDS011;8870;50.950;11.762;2022-12-05T23:51:24;857.03;;;28.75;;
17504;SDS011;8870;50.950;11.762;2022-12-05T23:57:01;308.50;;;18.20;;
